createdAt,value
2022-12-25T00:01:21.412Z,7.92
2022-12-25T00:03:48.458Z,7.87
2022-12-25T00:06:14.905Z,7.93
2022-12-25T00:08:42.159Z,7.90
2022-12-25T00:11:13.713Z,7.91
2022-12-25T00:13:40.283Z,7.93
2022-12-25T00:16:16.034Z,7.87
2022-12-25T00:18:42.429Z,7.84
2022-12-25T00:21:08.830Z,7.75
2022-12-25T00:23:35.575Z,7.78
2022-12-25T00:26:11.118Z,7.81
2022-12-25T00:28:37.626Z,7.76
2022-12-25T00:31:12.740Z,7.70
2022-12-25T00:33:41.917Z,7.74
2022-12-25T00:36:09.431Z,7.67
2022-12-25T00:38:37.703Z,7.70
2022-12-25T00:41:10.245Z,7.72
2022-12-25T00:43:38.386Z,7.59
2022-12-25T00:46:06.258Z,7.60
2022-12-25T00:48:33.659Z,7.54
2022-12-25T00:51:04.125Z,7.48
2022-12-25T00:53:31.361Z,7.56
2022-12-25T00:56:00.856Z,7.48
2022-12-25T00:58:30.143Z,7.53
2022-12-25T01:00:56.815Z,7.39
2022-12-25T01:03:23.405Z,7.46
2022-12-25T01:05:58.474Z,7.42
2022-12-25T01:08:25.308Z,7.38
2022-12-25T01:11:04.210Z,7.40
2022-12-25T01:13:31.607Z,7.42
2022-12-25T01:15:58.191Z,7.38
2022-12-25T01:18:25.205Z,7.35
2022-12-25T01:20:51.754Z,7.44
2022-12-25T01:23:18.111Z,7.47
2022-12-25T01:25:44.474Z,7.47
2022-12-25T01:28:10.836Z,7.46
2022-12-25T01:30:37.226Z,7.50
2022-12-25T01:33:03.626Z,7.46
2022-12-25T01:35:29.991Z,7.45
2022-12-25T01:37:56.416Z,7.57
2022-12-25T01:40:22.774Z,7.58
2022-12-25T01:42:49.183Z,7.56
2022-12-25T01:45:33.619Z,7.63
2022-12-25T01:48:04.117Z,7.65
2022-12-25T01:50:30.865Z,7.66
2022-12-25T01:52:58.140Z,7.62
2022-12-25T01:55:25.541Z,7.66
2022-12-25T01:57:52.089Z,7.69
2022-12-25T02:00:18.631Z,7.72
2022-12-25T02:02:45.677Z,7.69
2022-12-25T02:05:20.107Z,7.63
2022-12-25T02:07:47.036Z,7.66
2022-12-25T02:10:13.824Z,7.66
2022-12-25T02:12:41.462Z,7.64
2022-12-25T02:15:35.045Z,7.65
2022-12-25T02:18:12.249Z,7.66
2022-12-25T02:20:53.793Z,7.66
2022-12-25T02:23:39.104Z,7.63
2022-12-25T02:26:16.922Z,7.61
2022-12-25T02:28:58.659Z,7.62
2022-12-25T02:31:51.220Z,7.59
2022-12-25T02:34:25.802Z,7.56
2022-12-25T02:37:05.522Z,7.57
2022-12-25T02:40:01.564Z,7.59
2022-12-25T02:43:04.555Z,7.65
2022-12-25T02:46:01.043Z,7.63
2022-12-25T02:48:49.405Z,7.55
2022-12-25T02:51:37.149Z,7.50
2022-12-25T02:54:25.990Z,7.54
2022-12-25T02:57:12.886Z,7.54
2022-12-25T03:00:01.154Z,7.52
2022-12-25T03:02:49.404Z,7.50
2022-12-25T03:05:39.546Z,7.53
2022-12-25T03:08:12.895Z,7.46
2022-12-25T03:11:03.386Z,7.50
2022-12-25T03:13:37.034Z,7.44
2022-12-25T03:16:22.549Z,7.53
2022-12-25T03:18:48.984Z,7.48
2022-12-25T03:21:33.738Z,7.43
2022-12-25T03:24:20.512Z,7.39
2022-12-25T03:26:55.760Z,7.38
2022-12-25T03:29:49.051Z,7.41
2022-12-25T03:32:43.101Z,7.45
2022-12-25T03:35:33.179Z,7.37
2022-12-25T03:38:52.290Z,7.41
2022-12-25T03:41:47.844Z,7.35
2022-12-25T03:44:45.160Z,7.37
2022-12-25T03:47:52.172Z,7.41
2022-12-25T03:50:43.212Z,7.43
2022-12-25T03:53:34.381Z,7.37
2022-12-25T03:56:20.167Z,7.37
2022-12-25T03:59:10.611Z,7.34
2022-12-25T04:01:55.388Z,7.37
2022-12-25T04:04:40.617Z,7.37
2022-12-25T04:07:25.377Z,7.31
2022-12-25T04:10:30.004Z,7.27
2022-12-25T04:13:15.271Z,7.23
2022-12-25T04:16:00.007Z,7.24
2022-12-25T04:18:44.971Z,7.28
2022-12-25T04:21:29.630Z,7.22
2022-12-25T04:24:14.385Z,7.21
2022-12-25T04:26:59.331Z,7.23
2022-12-25T04:29:44.080Z,7.27
2022-12-25T04:32:28.954Z,7.24
2022-12-25T04:35:13.651Z,7.22
2022-12-25T04:37:40.010Z,7.26
2022-12-25T04:40:06.909Z,7.21
2022-12-25T04:42:33.376Z,7.25
2022-12-25T04:44:59.744Z,7.24
2022-12-25T04:47:26.086Z,7.19
2022-12-25T04:49:52.466Z,7.21
2022-12-25T04:52:18.842Z,7.26
2022-12-25T04:54:45.221Z,7.20
2022-12-25T04:57:11.547Z,7.22
2022-12-25T04:59:37.917Z,7.20
2022-12-25T05:02:04.417Z,7.19
2022-12-25T05:04:31.022Z,7.20
2022-12-25T05:06:57.382Z,7.17
2022-12-25T05:09:25.475Z,7.14
2022-12-25T05:11:51.836Z,7.19
2022-12-25T05:14:18.629Z,7.15
2022-12-25T05:16:45.131Z,7.17
2022-12-25T05:19:11.491Z,7.19
2022-12-25T05:21:37.864Z,7.14
2022-12-25T05:24:04.396Z,7.24
2022-12-25T05:26:30.789Z,7.17
2022-12-25T05:28:57.164Z,7.18
2022-12-25T05:31:23.671Z,7.17
2022-12-25T05:33:51.508Z,7.21
2022-12-25T05:36:18.679Z,7.21
2022-12-25T05:38:45.026Z,7.17
2022-12-25T05:41:11.413Z,7.21
2022-12-25T05:43:37.803Z,7.14
2022-12-25T05:46:06.910Z,7.12
2022-12-25T05:48:35.586Z,7.08
2022-12-25T05:51:11.995Z,7.10
2022-12-25T05:53:39.496Z,7.08
2022-12-25T05:56:07.420Z,7.11
2022-12-25T05:58:35.141Z,7.06
2022-12-25T06:01:01.973Z,7.14
2022-12-25T06:03:28.594Z,7.10
2022-12-25T06:05:55.195Z,7.05
2022-12-25T06:08:21.739Z,7.12
2022-12-25T06:10:48.215Z,7.07
2022-12-25T06:13:14.710Z,7.11
2022-12-25T06:15:41.857Z,7.14
2022-12-25T06:18:08.382Z,6.99
2022-12-25T06:20:35.320Z,7.08
2022-12-25T06:23:02.149Z,7.11
2022-12-25T06:25:28.619Z,7.09
2022-12-25T06:27:54.986Z,7.04
2022-12-25T06:30:21.640Z,7.02
2022-12-25T06:32:48.036Z,7.03
2022-12-25T06:35:14.450Z,7.01
2022-12-25T06:37:40.824Z,7.06
2022-12-25T06:40:07.932Z,7.10
2022-12-25T06:42:34.312Z,7.05
2022-12-25T06:45:00.654Z,7.07
2022-12-25T06:47:27.051Z,7.08
2022-12-25T06:49:53.393Z,7.06
2022-12-25T06:52:19.758Z,6.99
2022-12-25T06:54:46.904Z,7.02
2022-12-25T06:57:13.279Z,7.03
2022-12-25T06:59:39.639Z,7.02
2022-12-25T07:02:06.216Z,7.08
2022-12-25T07:04:41.768Z,7.02
2022-12-25T07:07:09.785Z,7.07
2022-12-25T07:09:38.562Z,7.07
2022-12-25T07:12:14.447Z,7.03
2022-12-25T07:14:41.141Z,7.07
2022-12-25T07:17:07.525Z,7.08
2022-12-25T07:19:34.686Z,7.06
2022-12-25T07:22:03.556Z,7.03
2022-12-25T07:24:29.906Z,7.05
2022-12-25T07:26:56.258Z,7.08
2022-12-25T07:29:22.632Z,7.05
2022-12-25T07:31:49.126Z,6.98
2022-12-25T07:34:17.760Z,6.99
2022-12-25T07:36:44.138Z,6.98
2022-12-25T07:39:11.484Z,7.05
2022-12-25T07:41:38.105Z,7.01
2022-12-25T07:44:04.734Z,7.08
2022-12-25T07:46:31.229Z,7.02
2022-12-25T07:48:57.608Z,7.01
2022-12-25T07:51:23.995Z,7.02
2022-12-25T07:53:50.344Z,7.08
2022-12-25T07:56:19.336Z,7.02
2022-12-25T07:58:46.892Z,7.05
2022-12-25T08:01:17.661Z,7.01
2022-12-25T08:03:49.338Z,7.11
2022-12-25T08:06:15.813Z,7.09
2022-12-25T08:08:42.228Z,7.07
2022-12-25T08:11:09.674Z,7.12
2022-12-25T08:13:36.981Z,7.12
2022-12-25T08:16:07.791Z,7.20
2022-12-25T08:18:36.116Z,7.18
2022-12-25T08:21:08.188Z,7.24
2022-12-25T08:23:36.314Z,7.27
2022-12-25T08:26:05.621Z,7.26
2022-12-25T08:28:33.350Z,7.27
2022-12-25T08:30:59.919Z,7.26
2022-12-25T08:33:26.385Z,7.22
2022-12-25T08:35:52.745Z,7.25
2022-12-25T08:38:19.156Z,7.28
2022-12-25T08:40:45.535Z,7.25
2022-12-25T08:43:11.901Z,7.29
2022-12-25T08:45:38.285Z,7.28
2022-12-25T08:48:04.669Z,7.30
2022-12-25T08:50:31.088Z,7.35
2022-12-25T08:52:57.413Z,7.35
2022-12-25T08:55:23.768Z,7.34
2022-12-25T08:57:53.286Z,7.31
2022-12-25T09:00:19.975Z,7.29
2022-12-25T09:02:46.402Z,7.32
2022-12-25T09:05:12.878Z,7.30
2022-12-25T09:07:39.237Z,7.36
2022-12-25T09:10:06.304Z,7.32
2022-12-25T09:12:32.652Z,7.37
2022-12-25T09:14:59.019Z,7.30
2022-12-25T09:17:25.364Z,7.26
2022-12-25T09:19:51.764Z,7.29
2022-12-25T09:22:18.135Z,7.36
2022-12-25T09:24:44.496Z,7.27
2022-12-25T09:27:10.850Z,7.32
2022-12-25T09:29:38.930Z,7.24
2022-12-25T09:32:06.798Z,7.27
2022-12-25T09:34:33.162Z,7.24
2022-12-25T09:36:59.506Z,7.34
2022-12-25T09:39:26.729Z,7.30
2022-12-25T09:41:58.614Z,7.42
2022-12-25T09:44:28.918Z,7.36
2022-12-25T09:47:02.556Z,7.48
2022-12-25T09:49:49.007Z,7.49
2022-12-25T09:52:33.778Z,7.56
2022-12-25T09:55:07.844Z,7.57
2022-12-25T09:57:34.260Z,7.61
2022-12-25T10:00:00.693Z,7.61
2022-12-25T10:03:05.025Z,7.67
2022-12-25T10:05:49.321Z,7.70
2022-12-25T10:08:34.109Z,7.77
2022-12-25T10:11:26.724Z,7.82
2022-12-25T10:14:03.129Z,7.88
2022-12-25T10:16:37.309Z,7.82
2022-12-25T10:19:25.015Z,7.94
2022-12-25T10:21:57.656Z,7.88
2022-12-25T10:24:38.761Z,7.97
2022-12-25T10:27:17.248Z,7.96
2022-12-25T10:29:46.409Z,8.05
2022-12-25T10:32:13.252Z,8.00
2022-12-25T10:34:41.760Z,7.96
2022-12-25T10:37:11.155Z,7.88
2022-12-25T10:39:42.420Z,7.87
2022-12-25T10:42:34.418Z,7.97
2022-12-25T10:45:03.793Z,7.93
2022-12-25T10:47:33.605Z,7.89
2022-12-25T10:50:01.885Z,7.95
2022-12-25T10:52:29.479Z,7.94
2022-12-25T10:54:56.455Z,8.01
2022-12-25T10:57:25.465Z,7.98
2022-12-25T10:59:57.458Z,8.14
2022-12-25T11:02:34.666Z,8.14
2022-12-25T11:05:11.244Z,8.14
2022-12-25T11:07:51.136Z,8.10
2022-12-25T11:10:32.754Z,8.22
2022-12-25T11:13:00.893Z,8.20
2022-12-25T11:15:42.288Z,8.19
2022-12-25T11:18:30.079Z,8.15
2022-12-25T11:20:58.060Z,8.32
2022-12-25T11:23:26.493Z,8.28
2022-12-25T11:26:07.794Z,8.16
2022-12-25T11:28:37.399Z,8.27
2022-12-25T11:31:19.279Z,8.30
2022-12-25T11:33:58.444Z,8.29
2022-12-25T11:36:48.088Z,8.30
2022-12-25T11:39:25.334Z,8.38
2022-12-25T11:41:57.779Z,8.35
2022-12-25T11:45:01.007Z,8.40
2022-12-25T11:47:30.014Z,8.48
2022-12-25T11:50:04.676Z,8.42
2022-12-25T11:52:37.495Z,8.41
2022-12-25T11:55:30.172Z,8.41
2022-12-25T11:58:01.298Z,8.44
2022-12-25T12:00:31.256Z,8.42
2022-12-25T12:03:16.045Z,8.45
2022-12-25T12:05:51.269Z,8.39
2022-12-25T12:08:17.640Z,8.44
2022-12-25T12:11:18.573Z,8.44
2022-12-25T12:14:03.402Z,8.39
2022-12-25T12:16:30.122Z,8.38
2022-12-25T12:18:56.565Z,8.37
2022-12-25T12:21:25.999Z,8.41
2022-12-25T12:24:19.012Z,8.32
2022-12-25T12:26:47.290Z,8.40
2022-12-25T12:29:29.882Z,8.38
2022-12-25T12:32:03.134Z,8.33
2022-12-25T12:34:42.516Z,8.36
2022-12-25T12:37:37.039Z,8.32
2022-12-25T12:40:05.680Z,8.39
2022-12-25T12:42:46.226Z,8.41
2022-12-25T12:45:17.695Z,8.37
2022-12-25T12:47:47.928Z,8.46
2022-12-25T12:50:35.742Z,8.48
2022-12-25T12:53:23.989Z,8.42
2022-12-25T12:55:51.352Z,8.46
2022-12-25T12:58:33.368Z,8.46
2022-12-25T13:01:24.037Z,8.46
2022-12-25T13:03:57.572Z,8.45
2022-12-25T13:06:29.563Z,8.57
2022-12-25T13:09:10.779Z,8.44
2022-12-25T13:11:41.444Z,8.57
2022-12-25T13:14:16.093Z,8.58
2022-12-25T13:16:45.109Z,8.51
2022-12-25T13:19:18.312Z,8.44
2022-12-25T13:21:56.448Z,8.52
2022-12-25T13:24:25.721Z,8.51
2022-12-25T13:26:52.105Z,8.43
2022-12-25T13:29:36.704Z,8.40
2022-12-25T13:32:05.740Z,8.43
2022-12-25T13:34:36.252Z,8.47
2022-12-25T13:37:17.715Z,8.37
2022-12-25T13:40:06.351Z,8.37
2022-12-25T13:42:39.876Z,8.41
2022-12-25T13:45:21.030Z,8.40
2022-12-25T13:47:53.073Z,8.31
2022-12-25T13:50:27.829Z,8.31
2022-12-25T13:52:56.206Z,8.38
2022-12-25T13:55:25.576Z,8.37
2022-12-25T13:58:02.483Z,8.32
2022-12-25T14:00:46.439Z,8.27
2022-12-25T14:03:39.031Z,8.30
2022-12-25T14:06:27.552Z,8.25
2022-12-25T14:08:56.121Z,8.18
2022-12-25T14:11:25.811Z,8.29
2022-12-25T14:13:56.521Z,8.26
2022-12-25T14:16:23.705Z,8.23
2022-12-25T14:18:58.820Z,8.24
2022-12-25T14:21:30.140Z,8.29
2022-12-25T14:23:56.656Z,8.15
2022-12-25T14:26:28.896Z,8.20
2022-12-25T14:29:11.169Z,8.28
2022-12-25T14:31:43.773Z,8.27
2022-12-25T14:34:20.562Z,8.25
2022-12-25T14:36:48.090Z,8.21
2022-12-25T14:39:29.843Z,8.13
2022-12-25T14:41:56.616Z,8.20
2022-12-25T14:44:41.197Z,8.18
2022-12-25T14:47:10.569Z,8.17
2022-12-25T14:49:37.719Z,8.20
2022-12-25T14:52:25.435Z,8.20
2022-12-25T14:55:01.898Z,8.13
2022-12-25T14:57:34.557Z,8.15
2022-12-25T15:00:05.710Z,8.15
2022-12-25T15:02:40.669Z,8.14
2022-12-25T15:05:27.405Z,8.14
2022-12-25T15:08:08.728Z,8.22
2022-12-25T15:13:22.107Z,8.18
2022-12-25T15:16:00.692Z,8.14
2022-12-25T15:18:34.320Z,8.12
2022-12-25T15:21:00.777Z,8.11
2022-12-25T15:23:27.311Z,8.15
2022-12-25T15:25:53.769Z,8.08
2022-12-25T15:28:20.742Z,8.10
2022-12-25T15:30:47.635Z,8.03
2022-12-25T15:33:16.433Z,8.01
2022-12-25T15:35:44.350Z,8.10
2022-12-25T15:38:12.607Z,8.05
2022-12-25T15:40:39.967Z,8.02
2022-12-25T15:43:14.414Z,7.98
2022-12-25T15:45:47.294Z,7.96
2022-12-25T15:48:13.662Z,8.00
2022-12-25T15:50:40.061Z,7.97
2022-12-25T15:53:06.441Z,7.89
2022-12-25T15:55:34.029Z,8.02
2022-12-25T15:58:00.410Z,7.97
2022-12-25T16:00:27.072Z,7.92
2022-12-25T16:02:53.751Z,7.86
2022-12-25T16:05:20.821Z,7.80
2022-12-25T16:07:47.494Z,7.78
2022-12-25T16:10:19.109Z,7.76
2022-12-25T16:12:46.201Z,7.77
2022-12-25T16:15:14.402Z,7.73
2022-12-25T16:17:40.911Z,7.72
2022-12-25T16:20:08.616Z,7.65
2022-12-25T16:22:39.798Z,7.64
2022-12-25T16:25:18.529Z,7.69
2022-12-25T16:27:45.341Z,7.67
2022-12-25T16:30:15.049Z,7.68
2022-12-25T16:32:42.339Z,7.68
2022-12-25T16:35:09.489Z,7.82
2022-12-25T16:37:36.779Z,7.77
2022-12-25T16:40:03.920Z,7.76
2022-12-25T16:42:30.348Z,7.75
2022-12-25T16:44:56.721Z,7.74
2022-12-25T16:47:23.115Z,7.81
2022-12-25T16:49:49.473Z,7.82
2022-12-25T16:52:15.823Z,7.86
2022-12-25T16:54:42.196Z,7.87
2022-12-25T16:57:08.579Z,7.93
2022-12-25T16:59:35.804Z,8.01
2022-12-25T17:02:02.284Z,8.03
2022-12-25T17:04:28.870Z,8.03
2022-12-25T17:06:55.493Z,8.06
2022-12-25T17:09:21.844Z,8.03
2022-12-25T17:11:48.226Z,8.11
2022-12-25T17:14:14.559Z,8.09
2022-12-25T17:16:41.091Z,8.19
2022-12-25T17:19:17.573Z,8.25
2022-12-25T17:21:44.226Z,8.28
2022-12-25T17:24:11.078Z,8.28
2022-12-25T17:26:37.632Z,8.40
2022-12-25T17:29:04.080Z,8.50
2022-12-25T17:31:30.500Z,8.58
2022-12-25T17:33:57.604Z,8.61
2022-12-25T17:36:23.975Z,8.60
2022-12-25T17:38:50.429Z,8.61
2022-12-25T17:41:18.541Z,8.64
2022-12-25T17:43:45.815Z,8.71
2022-12-25T17:46:22.304Z,8.70
2022-12-25T17:48:50.054Z,8.54
2022-12-25T17:51:21.073Z,8.58
2022-12-25T17:53:50.155Z,8.51
2022-12-25T17:56:17.709Z,8.47
2022-12-25T17:58:44.643Z,8.57
2022-12-25T18:01:16.383Z,8.67
2022-12-25T18:03:44.497Z,8.61
2022-12-25T18:06:13.390Z,8.77
2022-12-25T18:08:41.360Z,8.85
2022-12-25T18:11:09.771Z,8.86
2022-12-25T18:13:37.072Z,8.92
2022-12-25T18:16:06.185Z,8.99
2022-12-25T18:18:33.369Z,9.12
2022-12-25T18:20:59.855Z,9.22
2022-12-25T18:23:26.362Z,9.24
2022-12-25T18:25:52.738Z,9.29
2022-12-25T18:28:19.366Z,9.40
2022-12-25T18:30:46.246Z,9.43
2022-12-25T18:33:13.239Z,9.45
2022-12-25T18:35:43.542Z,9.44
2022-12-25T18:38:11.266Z,9.45
2022-12-25T18:40:46.580Z,9.40
2022-12-25T18:43:14.390Z,9.38
2022-12-25T18:45:41.752Z,9.49
2022-12-25T18:48:09.624Z,9.45
2022-12-25T18:50:40.356Z,9.41
2022-12-25T18:53:07.068Z,9.40
2022-12-25T18:55:33.581Z,9.33
2022-12-25T18:57:59.997Z,9.33
2022-12-25T19:00:27.910Z,9.31
2022-12-25T19:02:58.542Z,9.33
2022-12-25T19:05:25.234Z,9.18
2022-12-25T19:07:51.909Z,9.14
2022-12-25T19:10:18.499Z,9.04
2022-12-25T19:12:44.857Z,8.97
2022-12-25T19:15:11.695Z,8.89
2022-12-25T19:17:38.151Z,8.89
2022-12-25T19:20:06.024Z,8.85
2022-12-25T19:22:32.663Z,8.83
2022-12-25T19:24:59.127Z,8.78
2022-12-25T19:27:25.519Z,8.77
2022-12-25T19:29:51.902Z,8.68
2022-12-25T19:32:18.306Z,8.60
2022-12-25T19:34:44.716Z,8.58
2022-12-25T19:37:11.137Z,8.57
2022-12-25T19:39:37.568Z,8.54
2022-12-25T19:42:04.023Z,8.49
2022-12-25T19:44:30.378Z,8.38
2022-12-25T19:46:56.787Z,8.37
2022-12-25T19:49:23.143Z,8.31
2022-12-25T19:51:49.511Z,8.33
2022-12-25T19:54:17.210Z,8.25
2022-12-25T19:56:43.588Z,8.21
2022-12-25T19:59:11.832Z,8.18
2022-12-25T20:01:38.993Z,8.17
2022-12-25T20:04:07.955Z,8.26
2022-12-25T20:06:35.324Z,8.21
2022-12-25T20:09:06.168Z,8.20
2022-12-25T20:11:33.970Z,8.21
2022-12-25T20:14:01.027Z,8.17
2022-12-25T20:16:27.682Z,8.21
2022-12-25T20:18:54.221Z,8.24
2022-12-25T20:21:22.657Z,8.22
2022-12-25T20:23:51.255Z,8.24
2022-12-25T20:26:20.121Z,8.18
2022-12-25T20:28:46.668Z,8.22
2022-12-25T20:31:20.608Z,8.26
2022-12-25T20:33:47.461Z,8.24
2022-12-25T20:36:14.744Z,8.29
2022-12-25T20:38:41.454Z,8.22
2022-12-25T20:41:27.877Z,8.22
2022-12-25T20:43:54.831Z,8.26
2022-12-25T20:46:22.045Z,8.21
2022-12-25T20:48:48.453Z,8.17
2022-12-25T20:51:20.803Z,8.16
2022-12-25T20:53:48.071Z,8.20
2022-12-25T20:56:16.533Z,8.23
2022-12-25T20:58:43.098Z,8.21
2022-12-25T21:01:12.501Z,8.20
2022-12-25T21:03:38.974Z,8.16
2022-12-25T21:06:06.270Z,8.09
2022-12-25T21:08:32.663Z,8.10
2022-12-25T21:11:00.883Z,8.07
2022-12-25T21:13:30.639Z,8.13
2022-12-25T21:15:57.943Z,8.07
2022-12-25T21:18:26.546Z,8.03
2022-12-25T21:20:56.078Z,8.07
2022-12-25T21:23:23.536Z,7.97
2022-12-25T21:25:49.943Z,7.92
2022-12-25T21:28:16.779Z,7.85
2022-12-25T21:30:43.225Z,7.89
2022-12-25T21:33:30.936Z,7.82
2022-12-25T21:36:05.362Z,7.84
2022-12-25T21:38:31.996Z,7.75
2022-12-25T21:41:10.224Z,7.71
2022-12-25T21:43:38.622Z,7.68
2022-12-25T21:46:11.745Z,7.70
2022-12-25T21:48:38.796Z,7.65
2022-12-25T21:51:34.986Z,7.61
2022-12-25T21:54:02.405Z,7.58
2022-12-25T21:56:37.080Z,7.57
2022-12-25T21:59:07.879Z,7.56
2022-12-25T22:01:35.889Z,7.48
2022-12-25T22:04:05.237Z,7.51
2022-12-25T22:06:51.445Z,7.50
2022-12-25T22:09:18.023Z,7.54
2022-12-25T22:12:03.068Z,7.48
2022-12-25T22:14:51.804Z,7.53
2022-12-25T22:17:59.949Z,7.54
2022-12-25T22:20:38.123Z,7.52
2022-12-25T22:23:05.031Z,7.53
2022-12-25T22:25:31.617Z,7.51
2022-12-25T22:27:58.181Z,7.49
2022-12-25T22:30:27.555Z,7.50
2022-12-25T22:32:54.373Z,7.52
2022-12-25T22:35:20.873Z,7.58
2022-12-25T22:37:48.083Z,7.58
2022-12-25T22:40:16.704Z,7.57
2022-12-25T22:42:43.129Z,7.51
2022-12-25T22:45:10.148Z,7.55
2022-12-25T22:47:36.724Z,7.50
2022-12-25T22:50:03.527Z,7.53
2022-12-25T22:52:29.938Z,7.49
2022-12-25T22:54:56.415Z,7.45
2022-12-25T22:57:22.837Z,7.54
2022-12-25T22:59:51.725Z,7.48
2022-12-25T23:02:18.312Z,7.60
2022-12-25T23:04:44.766Z,7.56
2022-12-25T23:07:14.181Z,7.51
2022-12-25T23:09:40.561Z,7.53
2022-12-25T23:12:07.030Z,7.53
2022-12-25T23:14:39.259Z,7.51
2022-12-25T23:17:30.935Z,7.57
2022-12-25T23:20:17.499Z,7.49
2022-12-25T23:23:02.678Z,7.47
2022-12-25T23:25:48.056Z,7.47
2022-12-25T23:28:14.521Z,7.57
2022-12-25T23:30:40.913Z,7.47
2022-12-25T23:33:07.253Z,7.43
2022-12-25T23:35:33.667Z,7.51
2022-12-25T23:38:00.013Z,7.49
2022-12-25T23:40:26.390Z,7.49
2022-12-25T23:42:52.896Z,7.55
2022-12-25T23:45:19.261Z,7.45
2022-12-25T23:47:45.614Z,7.42
2022-12-25T23:50:12.006Z,7.44
2022-12-25T23:52:38.452Z,7.37
2022-12-25T23:55:05.553Z,7.43
2022-12-25T23:57:31.931Z,7.70
2022-12-25T23:59:58.511Z,7.58
